sensor_id;sensor_type;location;lat;lon;timestamp;temperature;humidity
66271;DHT22;53063;39.614;8.814;2023-07-31T00:00:37;24.60;99.90
66271;DHT22;53063;39.614;8.814;2023-07-31T00:03:03;24.50;99.90
66271;DHT22;53063;39.614;8.814;2023-07-31T00:05:29;24.40;99.90
66271;DHT22;53063;39.614;8.814;2023-07-31T00:07:54;24.50;99.90
66271;DHT22;53063;39.614;8.814;2023-07-31T00:10:20;24.40;99.90
66271;DHT22;53063;39.614;8.814;2023-07-31T00:12:47;24.40;99.90
66271;DHT22;53063;39.614;8.814;2023-07-31T00:15:14;24.40;99.90
66271;DHT22;53063;39.614;8.814;2023-07-31T00:17:40;24.30;99.90
66271;DHT22;53063;39.614;8.814;2023-07-31T00:20:06;24.20;99.90
66271;DHT22;53063;39.614;8.814;2023-07-31T00:22:32;24.30;99.90
66271;DHT22;53063;39.614;8.814;2023-07-31T00:24:58;24.30;99.90
66271;DHT22;53063;39.614;8.814;2023-07-31T00:27:25;24.20;99.90
66271;DHT22;53063;39.614;8.814;2023-07-31T00:29:51;24.20;99.90
66271;DHT22;53063;39.614;8.814;2023-07-31T00:32:17;24.20;99.90
66271;DHT22;53063;39.614;8.814;2023-07-31T00:34:43;24.20;99.90
66271;DHT22;53063;39.614;8.814;2023-07-31T00:37:09;24.20;99.90
66271;DHT22;53063;39.614;8.814;2023-07-31T00:39:35;24.30;99.90
66271;DHT22;53063;39.614;8.814;2023-07-31T00:42:01;24.20;99.90
66271;DHT22;53063;39.614;8.814;2023-07-31T00:44:27;24.20;99.90
66271;DHT22;53063;39.614;8.814;2023-07-31T00:46:54;24.30;99.90
66271;DHT22;53063;39.614;8.814;2023-07-31T00:49:21;24.20;99.90
66271;DHT22;53063;39.614;8.814;2023-07-31T00:51:48;24.30;99.90
66271;DHT22;53063;39.614;8.814;2023-07-31T00:54:14;24.20;99.90
66271;DHT22;53063;39.614;8.814;2023-07-31T00:56:41;24.20;99.90
66271;DHT22;53063;39.614;8.814;2023-07-31T00:59:07;24.10;99.90
66271;DHT22;53063;39.614;8.814;2023-07-31T01:01:33;24.00;99.90
66271;DHT22;53063;39.614;8.814;2023-07-31T01:03:59;24.00;99.90
66271;DHT22;53063;39.614;8.814;2023-07-31T01:09:30;24.10;99.90
66271;DHT22;53063;39.614;8.814;2023-07-31T01:12:03;24.10;99.90
66271;DHT22;53063;39.614;8.814;2023-07-31T01:14:30;24.20;99.90
66271;DHT22;53063;39.614;8.814;2023-07-31T01:16:56;24.20;99.90
66271;DHT22;53063;39.614;8.814;2023-07-31T01:19:24;24.20;99.90
66271;DHT22;53063;39.614;8.814;2023-07-31T01:22:16;24.30;99.90
66271;DHT22;53063;39.614;8.814;2023-07-31T01:24:59;24.30;99.90
66271;DHT22;53063;39.614;8.814;2023-07-31T01:27:33;24.20;99.90
66271;DHT22;53063;39.614;8.814;2023-07-31T01:30:11;24.20;99.90
66271;DHT22;53063;39.614;8.814;2023-07-31T01:32:41;24.20;99.90
66271;DHT22;53063;39.614;8.814;2023-07-31T01:35:08;24.10;99.90
66271;DHT22;53063;39.614;8.814;2023-07-31T01:37:34;24.20;99.90
66271;DHT22;53063;39.614;8.814;2023-07-31T01:40:01;24.20;99.90
66271;DHT22;53063;39.614;8.814;2023-07-31T01:42:27;24.10;99.90
66271;DHT22;53063;39.614;8.814;2023-07-31T01:44:53;24.10;99.90
66271;DHT22;53063;39.614;8.814;2023-07-31T01:47:19;24.20;99.90
66271;DHT22;53063;39.614;8.814;2023-07-31T01:49:45;24.10;99.90
66271;DHT22;53063;39.614;8.814;2023-07-31T01:52:11;24.20;99.90
66271;DHT22;53063;39.614;8.814;2023-07-31T01:54:36;24.20;99.90
66271;DHT22;53063;39.614;8.814;2023-07-31T01:57:02;24.20;99.90
66271;DHT22;53063;39.614;8.814;2023-07-31T01:59:29;24.20;99.90
66271;DHT22;53063;39.614;8.814;2023-07-31T02:01:55;24.30;99.90
66271;DHT22;53063;39.614;8.814;2023-07-31T02:04:20;24.30;99.90
66271;DHT22;53063;39.614;8.814;2023-07-31T02:06:46;24.30;99.90
66271;DHT22;53063;39.614;8.814;2023-07-31T02:09:12;24.30;99.90
66271;DHT22;53063;39.614;8.814;2023-07-31T02:11:38;24.10;99.90
66271;DHT22;53063;39.614;8.814;2023-07-31T02:14:04;24.00;99.90
66271;DHT22;53063;39.614;8.814;2023-07-31T02:16:30;24.00;99.90
66271;DHT22;53063;39.614;8.814;2023-07-31T02:18:56;24.00;99.90
66271;DHT22;53063;39.614;8.814;2023-07-31T02:21:22;24.00;99.90
66271;DHT22;53063;39.614;8.814;2023-07-31T02:23:47;24.00;99.90
66271;DHT22;53063;39.614;8.814;2023-07-31T02:26:13;24.00;99.90
66271;DHT22;53063;39.614;8.814;2023-07-31T02:28:39;24.00;99.90
66271;DHT22;53063;39.614;8.814;2023-07-31T02:31:08;24.00;99.90
66271;DHT22;53063;39.614;8.814;2023-07-31T02:33:34;23.80;99.90
66271;DHT22;53063;39.614;8.814;2023-07-31T02:36:00;23.70;99.90
66271;DHT22;53063;39.614;8.814;2023-07-31T02:38:26;23.60;99.90
66271;DHT22;53063;39.614;8.814;2023-07-31T02:40:52;23.50;99.90
66271;DHT22;53063;39.614;8.814;2023-07-31T02:43:18;23.40;99.90
66271;DHT22;53063;39.614;8.814;2023-07-31T02:45:44;23.40;99.90
66271;DHT22;53063;39.614;8.814;2023-07-31T02:48:10;23.50;99.90
66271;DHT22;53063;39.614;8.814;2023-07-31T02:50:36;23.50;99.90
66271;DHT22;53063;39.614;8.814;2023-07-31T02:53:02;23.40;99.90
66271;DHT22;53063;39.614;8.814;2023-07-31T02:55:28;23.40;99.90
66271;DHT22;53063;39.614;8.814;2023-07-31T02:57:54;23.40;99.90
66271;DHT22;53063;39.614;8.814;2023-07-31T03:00:20;23.40;99.90
66271;DHT22;53063;39.614;8.814;2023-07-31T03:02:47;23.30;99.90
66271;DHT22;53063;39.614;8.814;2023-07-31T03:05:12;23.30;99.90
66271;DHT22;53063;39.614;8.814;2023-07-31T03:07:38;23.30;99.90
66271;DHT22;53063;39.614;8.814;2023-07-31T03:10:06;23.30;99.90
66271;DHT22;53063;39.614;8.814;2023-07-31T03:12:32;23.30;99.90
66271;DHT22;53063;39.614;8.814;2023-07-31T03:14:58;23.30;99.90
66271;DHT22;53063;39.614;8.814;2023-07-31T03:17:24;23.30;99.90
66271;DHT22;53063;39.614;8.814;2023-07-31T03:19:50;23.20;99.90
66271;DHT22;53063;39.614;8.814;2023-07-31T03:22:15;23.20;99.90
66271;DHT22;53063;39.614;8.814;2023-07-31T03:24:41;23.10;99.90
66271;DHT22;53063;39.614;8.814;2023-07-31T03:27:07;23.10;99.90
66271;DHT22;53063;39.614;8.814;2023-07-31T03:29:33;23.10;99.90
66271;DHT22;53063;39.614;8.814;2023-07-31T03:31:59;23.10;99.90
66271;DHT22;53063;39.614;8.814;2023-07-31T03:34:27;23.20;99.90
66271;DHT22;53063;39.614;8.814;2023-07-31T03:36:53;23.20;99.90
66271;DHT22;53063;39.614;8.814;2023-07-31T03:39:18;23.30;99.90
66271;DHT22;53063;39.614;8.814;2023-07-31T03:41:44;23.30;99.90
66271;DHT22;53063;39.614;8.814;2023-07-31T03:44:10;23.30;99.90
66271;DHT22;53063;39.614;8.814;2023-07-31T03:46:36;23.30;99.90
66271;DHT22;53063;39.614;8.814;2023-07-31T03:49:02;23.40;99.90
66271;DHT22;53063;39.614;8.814;2023-07-31T03:51:28;23.30;99.90
66271;DHT22;53063;39.614;8.814;2023-07-31T03:53:54;23.30;99.90
66271;DHT22;53063;39.614;8.814;2023-07-31T03:56:20;23.30;99.90
66271;DHT22;53063;39.614;8.814;2023-07-31T03:58:46;23.30;99.90
66271;DHT22;53063;39.614;8.814;2023-07-31T04:01:11;23.20;99.90
66271;DHT22;53063;39.614;8.814;2023-07-31T04:03:37;23.20;99.90
66271;DHT22;53063;39.614;8.814;2023-07-31T04:06:03;23.20;99.90
66271;DHT22;53063;39.614;8.814;2023-07-31T04:08:29;23.20;99.90
66271;DHT22;53063;39.614;8.814;2023-07-31T04:10:55;23.20;99.90
66271;DHT22;53063;39.614;8.814;2023-07-31T04:13:22;23.10;99.90
66271;DHT22;53063;39.614;8.814;2023-07-31T04:15:51;23.10;99.90
66271;DHT22;53063;39.614;8.814;2023-07-31T04:18:17;23.10;99.90
66271;DHT22;53063;39.614;8.814;2023-07-31T04:20:43;23.00;99.90
66271;DHT22;53063;39.614;8.814;2023-07-31T04:23:09;22.90;99.90
66271;DHT22;53063;39.614;8.814;2023-07-31T04:25:35;22.80;99.90
66271;DHT22;53063;39.614;8.814;2023-07-31T04:28:01;22.70;99.90
66271;DHT22;53063;39.614;8.814;2023-07-31T04:30:27;22.60;99.90
66271;DHT22;53063;39.614;8.814;2023-07-31T04:32:52;22.60;99.90
66271;DHT22;53063;39.614;8.814;2023-07-31T04:35:18;22.60;99.90
66271;DHT22;53063;39.614;8.814;2023-07-31T04:37:44;22.60;99.90
66271;DHT22;53063;39.614;8.814;2023-07-31T04:40:15;22.60;99.90
66271;DHT22;53063;39.614;8.814;2023-07-31T04:42:41;22.60;99.90
66271;DHT22;53063;39.614;8.814;2023-07-31T04:45:08;22.60;99.90
66271;DHT22;53063;39.614;8.814;2023-07-31T04:47:34;22.70;99.90
66271;DHT22;53063;39.614;8.814;2023-07-31T04:50:00;22.70;99.90
66271;DHT22;53063;39.614;8.814;2023-07-31T04:52:26;22.60;99.90
66271;DHT22;53063;39.614;8.814;2023-07-31T04:54:52;22.70;99.90
66271;DHT22;53063;39.614;8.814;2023-07-31T04:57:18;22.70;99.90
66271;DHT22;53063;39.614;8.814;2023-07-31T04:59:44;22.80;99.90
66271;DHT22;53063;39.614;8.814;2023-07-31T05:02:12;22.80;99.90
66271;DHT22;53063;39.614;8.814;2023-07-31T05:04:38;22.90;99.90
66271;DHT22;53063;39.614;8.814;2023-07-31T05:07:04;22.90;99.90
66271;DHT22;53063;39.614;8.814;2023-07-31T05:09:30;23.00;99.90
66271;DHT22;53063;39.614;8.814;2023-07-31T05:11:56;23.10;99.90
66271;DHT22;53063;39.614;8.814;2023-07-31T05:14:22;23.30;99.90
66271;DHT22;53063;39.614;8.814;2023-07-31T05:16:48;23.40;99.90
66271;DHT22;53063;39.614;8.814;2023-07-31T05:19:14;23.40;99.90
66271;DHT22;53063;39.614;8.814;2023-07-31T05:21:40;23.40;99.90
66271;DHT22;53063;39.614;8.814;2023-07-31T05:24:06;23.30;99.90
66271;DHT22;53063;39.614;8.814;2023-07-31T05:26:32;23.40;99.90
66271;DHT22;53063;39.614;8.814;2023-07-31T05:28:58;23.40;99.90
66271;DHT22;53063;39.614;8.814;2023-07-31T05:31:24;23.50;99.90
66271;DHT22;53063;39.614;8.814;2023-07-31T05:33:50;23.60;99.90
66271;DHT22;53063;39.614;8.814;2023-07-31T05:36:17;23.80;99.90
66271;DHT22;53063;39.614;8.814;2023-07-31T05:38:43;23.90;99.90
66271;DHT22;53063;39.614;8.814;2023-07-31T05:41:11;24.00;99.90
66271;DHT22;53063;39.614;8.814;2023-07-31T05:43:37;24.00;99.90
66271;DHT22;53063;39.614;8.814;2023-07-31T05:46:03;24.00;99.90
66271;DHT22;53063;39.614;8.814;2023-07-31T05:48:29;24.20;99.90
66271;DHT22;53063;39.614;8.814;2023-07-31T05:50:55;24.20;99.90
66271;DHT22;53063;39.614;8.814;2023-07-31T05:53:21;24.30;99.90
66271;DHT22;53063;39.614;8.814;2023-07-31T05:55:47;24.90;99.90
66271;DHT22;53063;39.614;8.814;2023-07-31T05:58:13;25.50;99.90
66271;DHT22;53063;39.614;8.814;2023-07-31T06:00:38;26.10;99.90
66271;DHT22;53063;39.614;8.814;2023-07-31T06:03:04;27.40;99.90
66271;DHT22;53063;39.614;8.814;2023-07-31T06:05:30;28.00;90.60
66271;DHT22;53063;39.614;8.814;2023-07-31T06:07:57;28.30;87.40
66271;DHT22;53063;39.614;8.814;2023-07-31T06:10:23;28.60;85.00
66271;DHT22;53063;39.614;8.814;2023-07-31T06:12:49;28.90;82.90
66271;DHT22;53063;39.614;8.814;2023-07-31T06:15:15;29.00;80.10
66271;DHT22;53063;39.614;8.814;2023-07-31T06:17:41;28.30;80.70
66271;DHT22;53063;39.614;8.814;2023-07-31T06:20:08;27.10;85.10
66271;DHT22;53063;39.614;8.814;2023-07-31T06:22:34;27.20;87.90
66271;DHT22;53063;39.614;8.814;2023-07-31T06:25:00;26.70;88.30
66271;DHT22;53063;39.614;8.814;2023-07-31T06:27:26;26.30;92.90
66271;DHT22;53063;39.614;8.814;2023-07-31T06:29:51;26.60;92.90
66271;DHT22;53063;39.614;8.814;2023-07-31T06:32:17;26.40;91.80
66271;DHT22;53063;39.614;8.814;2023-07-31T06:34:44;26.20;95.30
66271;DHT22;53063;39.614;8.814;2023-07-31T06:37:09;26.10;95.80
66271;DHT22;53063;39.614;8.814;2023-07-31T06:39:35;26.10;96.20
66271;DHT22;53063;39.614;8.814;2023-07-31T06:42:03;26.10;95.10
66271;DHT22;53063;39.614;8.814;2023-07-31T06:44:29;26.30;93.90
66271;DHT22;53063;39.614;8.814;2023-07-31T06:46:55;26.50;93.10
66271;DHT22;53063;39.614;8.814;2023-07-31T06:49:20;26.60;91.10
66271;DHT22;53063;39.614;8.814;2023-07-31T06:51:46;26.50;90.40
66271;DHT22;53063;39.614;8.814;2023-07-31T06:54:12;26.70;91.10
66271;DHT22;53063;39.614;8.814;2023-07-31T06:56:38;26.90;89.60
66271;DHT22;53063;39.614;8.814;2023-07-31T06:59:04;26.80;88.40
66271;DHT22;53063;39.614;8.814;2023-07-31T07:01:30;26.90;88.00
66271;DHT22;53063;39.614;8.814;2023-07-31T07:03:56;27.30;86.00
66271;DHT22;53063;39.614;8.814;2023-07-31T07:06:22;27.30;86.00
66271;DHT22;53063;39.614;8.814;2023-07-31T07:08:48;27.10;85.90
66271;DHT22;53063;39.614;8.814;2023-07-31T07:11:14;27.00;85.40
66271;DHT22;53063;39.614;8.814;2023-07-31T07:13:40;27.10;82.90
66271;DHT22;53063;39.614;8.814;2023-07-31T07:16:06;27.40;81.30
66271;DHT22;53063;39.614;8.814;2023-07-31T07:18:32;27.60;80.40
66271;DHT22;53063;39.614;8.814;2023-07-31T07:20:58;27.70;78.70
66271;DHT22;53063;39.614;8.814;2023-07-31T07:23:24;27.60;80.00
66271;DHT22;53063;39.614;8.814;2023-07-31T07:25:50;27.70;76.70
66271;DHT22;53063;39.614;8.814;2023-07-31T07:28:17;28.00;75.50
66271;DHT22;53063;39.614;8.814;2023-07-31T07:30:43;28.00;74.70
66271;DHT22;53063;39.614;8.814;2023-07-31T07:33:08;28.10;75.60
66271;DHT22;53063;39.614;8.814;2023-07-31T07:35:35;28.20;75.90
66271;DHT22;53063;39.614;8.814;2023-07-31T07:38:02;28.20;74.50
66271;DHT22;53063;39.614;8.814;2023-07-31T07:40:28;28.30;75.80
66271;DHT22;53063;39.614;8.814;2023-07-31T07:42:54;28.20;77.10
66271;DHT22;53063;39.614;8.814;2023-07-31T07:45:20;28.40;75.90
66271;DHT22;53063;39.614;8.814;2023-07-31T07:47:46;28.70;72.40
66271;DHT22;53063;39.614;8.814;2023-07-31T07:50:12;28.70;71.10
66271;DHT22;53063;39.614;8.814;2023-07-31T07:52:37;28.70;69.10
66271;DHT22;53063;39.614;8.814;2023-07-31T07:55:04;28.80;73.20
66271;DHT22;53063;39.614;8.814;2023-07-31T07:57:30;28.90;71.40
66271;DHT22;53063;39.614;8.814;2023-07-31T07:59:55;28.90;70.10
66271;DHT22;53063;39.614;8.814;2023-07-31T08:02:22;29.00;69.80
66271;DHT22;53063;39.614;8.814;2023-07-31T08:04:48;28.70;65.10
66271;DHT22;53063;39.614;8.814;2023-07-31T08:07:14;29.00;65.30
66271;DHT22;53063;39.614;8.814;2023-07-31T08:09:40;29.30;64.30
66271;DHT22;53063;39.614;8.814;2023-07-31T08:12:07;29.70;64.10
66271;DHT22;53063;39.614;8.814;2023-07-31T08:14:33;30.00;62.70
66271;DHT22;53063;39.614;8.814;2023-07-31T08:16:59;29.80;63.30
66271;DHT22;53063;39.614;8.814;2023-07-31T08:19:25;29.60;62.20
66271;DHT22;53063;39.614;8.814;2023-07-31T08:21:51;30.00;60.40
66271;DHT22;53063;39.614;8.814;2023-07-31T08:24:17;30.00;60.80
66271;DHT22;53063;39.614;8.814;2023-07-31T08:26:43;30.30;61.20
66271;DHT22;53063;39.614;8.814;2023-07-31T08:29:09;30.40;61.50
66271;DHT22;53063;39.614;8.814;2023-07-31T08:31:34;30.20;61.00
66271;DHT22;53063;39.614;8.814;2023-07-31T08:34:01;30.40;61.00
66271;DHT22;53063;39.614;8.814;2023-07-31T08:36:27;30.40;61.30
66271;DHT22;53063;39.614;8.814;2023-07-31T08:38:53;30.70;60.20
66271;DHT22;53063;39.614;8.814;2023-07-31T08:41:19;31.20;57.60
66271;DHT22;53063;39.614;8.814;2023-07-31T08:43:49;31.30;55.50
66271;DHT22;53063;39.614;8.814;2023-07-31T08:46:15;31.20;57.00
66271;DHT22;53063;39.614;8.814;2023-07-31T08:48:42;31.60;54.80
66271;DHT22;53063;39.614;8.814;2023-07-31T08:51:09;31.50;54.20
66271;DHT22;53063;39.614;8.814;2023-07-31T08:53:35;31.70;53.40
66271;DHT22;53063;39.614;8.814;2023-07-31T08:56:02;31.40;53.70
66271;DHT22;53063;39.614;8.814;2023-07-31T08:58:31;31.80;50.90
66271;DHT22;53063;39.614;8.814;2023-07-31T09:01:00;31.70;50.20
66271;DHT22;53063;39.614;8.814;2023-07-31T09:03:26;31.70;50.20
66271;DHT22;53063;39.614;8.814;2023-07-31T09:05:54;31.90;51.00
66271;DHT22;53063;39.614;8.814;2023-07-31T09:08:21;32.10;48.00
66271;DHT22;53063;39.614;8.814;2023-07-31T09:10:48;32.10;48.50
66271;DHT22;53063;39.614;8.814;2023-07-31T09:13:16;31.90;46.80
66271;DHT22;53063;39.614;8.814;2023-07-31T09:15:46;31.90;46.60
66271;DHT22;53063;39.614;8.814;2023-07-31T09:18:12;32.20;47.30
66271;DHT22;53063;39.614;8.814;2023-07-31T09:20:40;32.10;46.70
66271;DHT22;53063;39.614;8.814;2023-07-31T09:23:13;32.20;46.80
66271;DHT22;53063;39.614;8.814;2023-07-31T09:25:43;32.00;48.90
66271;DHT22;53063;39.614;8.814;2023-07-31T09:28:10;32.40;49.90
66271;DHT22;53063;39.614;8.814;2023-07-31T09:30:50;32.70;47.90
66271;DHT22;53063;39.614;8.814;2023-07-31T09:33:17;32.30;49.30
66271;DHT22;53063;39.614;8.814;2023-07-31T09:35:43;32.70;49.80
66271;DHT22;53063;39.614;8.814;2023-07-31T09:38:11;32.40;48.80
66271;DHT22;53063;39.614;8.814;2023-07-31T09:43:06;32.50;50.70
66271;DHT22;53063;39.614;8.814;2023-07-31T09:45:37;32.40;51.30
66271;DHT22;53063;39.614;8.814;2023-07-31T09:48:10;32.60;50.10
66271;DHT22;53063;39.614;8.814;2023-07-31T09:50:41;32.90;49.80
66271;DHT22;53063;39.614;8.814;2023-07-31T09:53:07;32.80;49.60
66271;DHT22;53063;39.614;8.814;2023-07-31T09:55:34;32.90;49.20
66271;DHT22;53063;39.614;8.814;2023-07-31T09:58:04;33.00;49.00
66271;DHT22;53063;39.614;8.814;2023-07-31T10:00:31;32.70;46.90
66271;DHT22;53063;39.614;8.814;2023-07-31T10:03:05;32.60;49.40
66271;DHT22;53063;39.614;8.814;2023-07-31T10:05:39;32.90;48.80
66271;DHT22;53063;39.614;8.814;2023-07-31T10:08:07;33.40;47.50
66271;DHT22;53063;39.614;8.814;2023-07-31T10:10:36;33.20;47.40
66271;DHT22;53063;39.614;8.814;2023-07-31T10:13:04;32.90;48.40
66271;DHT22;53063;39.614;8.814;2023-07-31T10:15:31;33.60;47.60
66271;DHT22;53063;39.614;8.814;2023-07-31T10:17:58;33.30;48.70
66271;DHT22;53063;39.614;8.814;2023-07-31T10:20:26;33.90;45.50
66271;DHT22;53063;39.614;8.814;2023-07-31T10:22:54;34.20;45.00
66271;DHT22;53063;39.614;8.814;2023-07-31T10:25:22;34.00;40.70
66271;DHT22;53063;39.614;8.814;2023-07-31T10:27:49;34.00;42.70
66271;DHT22;53063;39.614;8.814;2023-07-31T10:30:17;34.20;42.40
66271;DHT22;53063;39.614;8.814;2023-07-31T10:32:44;34.30;44.40
66271;DHT22;53063;39.614;8.814;2023-07-31T10:35:11;33.80;44.70
66271;DHT22;53063;39.614;8.814;2023-07-31T10:37:41;33.80;44.30
66271;DHT22;53063;39.614;8.814;2023-07-31T10:40:18;34.40;44.20
66271;DHT22;53063;39.614;8.814;2023-07-31T10:42:55;34.10;45.20
66271;DHT22;53063;39.614;8.814;2023-07-31T10:48:01;34.10;45.00
66271;DHT22;53063;39.614;8.814;2023-07-31T10:50:28;34.40;43.40
66271;DHT22;53063;39.614;8.814;2023-07-31T10:52:56;34.30;41.30
66271;DHT22;53063;39.614;8.814;2023-07-31T10:57:57;34.90;40.30
66271;DHT22;53063;39.614;8.814;2023-07-31T11:00:28;34.70;40.50
66271;DHT22;53063;39.614;8.814;2023-07-31T11:03:05;34.50;41.50
66271;DHT22;53063;39.614;8.814;2023-07-31T11:06:03;34.30;42.40
66271;DHT22;53063;39.614;8.814;2023-07-31T11:08:34;34.40;42.40
66271;DHT22;53063;39.614;8.814;2023-07-31T11:16:16;33.70;44.20
66271;DHT22;53063;39.614;8.814;2023-07-31T11:18:44;34.40;41.00
66271;DHT22;53063;39.614;8.814;2023-07-31T11:21:14;34.90;42.50
66271;DHT22;53063;39.614;8.814;2023-07-31T11:23:41;35.20;39.70
66271;DHT22;53063;39.614;8.814;2023-07-31T11:26:07;35.10;41.90
66271;DHT22;53063;39.614;8.814;2023-07-31T11:28:34;35.10;42.70
66271;DHT22;53063;39.614;8.814;2023-07-31T11:31:02;35.00;41.60
66271;DHT22;53063;39.614;8.814;2023-07-31T11:33:28;35.00;40.40
66271;DHT22;53063;39.614;8.814;2023-07-31T11:35:54;34.80;39.90
66271;DHT22;53063;39.614;8.814;2023-07-31T11:38:25;34.90;39.40
66271;DHT22;53063;39.614;8.814;2023-07-31T11:40:59;35.00;39.70
66271;DHT22;53063;39.614;8.814;2023-07-31T11:43:25;35.00;39.60
66271;DHT22;53063;39.614;8.814;2023-07-31T11:45:56;35.20;42.30
66271;DHT22;53063;39.614;8.814;2023-07-31T11:48:26;35.30;37.90
66271;DHT22;53063;39.614;8.814;2023-07-31T11:50:55;35.30;39.00
66271;DHT22;53063;39.614;8.814;2023-07-31T11:56:04;35.10;40.60
66271;DHT22;53063;39.614;8.814;2023-07-31T11:58:31;35.30;40.10
66271;DHT22;53063;39.614;8.814;2023-07-31T12:01:00;35.20;39.10
66271;DHT22;53063;39.614;8.814;2023-07-31T12:03:26;34.80;39.70
66271;DHT22;53063;39.614;8.814;2023-07-31T12:05:53;34.50;39.90
66271;DHT22;53063;39.614;8.814;2023-07-31T12:08:22;34.90;38.90
66271;DHT22;53063;39.614;8.814;2023-07-31T12:10:50;35.00;39.20
66271;DHT22;53063;39.614;8.814;2023-07-31T12:13:25;35.00;39.30
66271;DHT22;53063;39.614;8.814;2023-07-31T12:15:58;35.40;39.20
66271;DHT22;53063;39.614;8.814;2023-07-31T12:18:27;35.40;39.10
66271;DHT22;53063;39.614;8.814;2023-07-31T12:21:02;35.20;40.20
66271;DHT22;53063;39.614;8.814;2023-07-31T12:23:31;35.60;37.60
66271;DHT22;53063;39.614;8.814;2023-07-31T12:26:10;35.50;37.50
66271;DHT22;53063;39.614;8.814;2023-07-31T12:28:40;35.50;38.10
66271;DHT22;53063;39.614;8.814;2023-07-31T12:31:06;35.40;38.00
66271;DHT22;53063;39.614;8.814;2023-07-31T12:33:35;35.70;38.10
66271;DHT22;53063;39.614;8.814;2023-07-31T12:36:02;35.30;37.90
66271;DHT22;53063;39.614;8.814;2023-07-31T12:38:29;35.10;37.70
66271;DHT22;53063;39.614;8.814;2023-07-31T12:40:55;35.30;38.10
66271;DHT22;53063;39.614;8.814;2023-07-31T12:43:22;35.20;38.00
66271;DHT22;53063;39.614;8.814;2023-07-31T12:45:49;35.00;38.20
66271;DHT22;53063;39.614;8.814;2023-07-31T12:48:15;34.40;39.50
66271;DHT22;53063;39.614;8.814;2023-07-31T12:50:40;34.60;38.30
66271;DHT22;53063;39.614;8.814;2023-07-31T12:53:06;34.70;37.90
66271;DHT22;53063;39.614;8.814;2023-07-31T12:55:33;34.90;37.80
66271;DHT22;53063;39.614;8.814;2023-07-31T12:58:02;34.50;37.20
66271;DHT22;53063;39.614;8.814;2023-07-31T13:00:29;34.30;38.30
66271;DHT22;53063;39.614;8.814;2023-07-31T13:02:55;34.80;37.30
66271;DHT22;53063;39.614;8.814;2023-07-31T13:05:21;35.00;37.00
66271;DHT22;53063;39.614;8.814;2023-07-31T13:07:47;34.90;36.50
66271;DHT22;53063;39.614;8.814;2023-07-31T13:10:13;34.80;37.40
66271;DHT22;53063;39.614;8.814;2023-07-31T13:12:39;35.00;36.20
66271;DHT22;53063;39.614;8.814;2023-07-31T13:15:06;34.70;36.80
66271;DHT22;53063;39.614;8.814;2023-07-31T13:17:32;34.90;37.10
66271;DHT22;53063;39.614;8.814;2023-07-31T13:19:58;35.00;36.10
66271;DHT22;53063;39.614;8.814;2023-07-31T13:22:25;34.70;36.10
66271;DHT22;53063;39.614;8.814;2023-07-31T13:24:51;34.50;37.10
66271;DHT22;53063;39.614;8.814;2023-07-31T13:27:16;34.20;36.90
66271;DHT22;53063;39.614;8.814;2023-07-31T13:29:45;33.80;37.10
66271;DHT22;53063;39.614;8.814;2023-07-31T13:32:11;33.60;37.10
66271;DHT22;53063;39.614;8.814;2023-07-31T13:34:37;33.90;37.40
66271;DHT22;53063;39.614;8.814;2023-07-31T13:37:03;34.20;36.70
66271;DHT22;53063;39.614;8.814;2023-07-31T13:39:31;34.20;36.50
66271;DHT22;53063;39.614;8.814;2023-07-31T13:41:58;33.90;35.40
66271;DHT22;53063;39.614;8.814;2023-07-31T13:44:24;33.80;36.50
66271;DHT22;53063;39.614;8.814;2023-07-31T13:46:50;33.70;36.90
66271;DHT22;53063;39.614;8.814;2023-07-31T13:49:16;33.60;37.40
66271;DHT22;53063;39.614;8.814;2023-07-31T13:51:42;33.50;37.90
66271;DHT22;53063;39.614;8.814;2023-07-31T13:54:08;33.50;37.10
66271;DHT22;53063;39.614;8.814;2023-07-31T13:56:37;33.30;37.70
66271;DHT22;53063;39.614;8.814;2023-07-31T13:59:04;33.30;37.30
66271;DHT22;53063;39.614;8.814;2023-07-31T14:01:30;33.10;36.60
66271;DHT22;53063;39.614;8.814;2023-07-31T14:03:56;33.00;37.20
66271;DHT22;53063;39.614;8.814;2023-07-31T14:06:22;32.90;37.50
66271;DHT22;53063;39.614;8.814;2023-07-31T14:08:48;32.90;37.60
66271;DHT22;53063;39.614;8.814;2023-07-31T14:11:13;32.80;37.70
66271;DHT22;53063;39.614;8.814;2023-07-31T14:13:39;32.70;38.30
66271;DHT22;53063;39.614;8.814;2023-07-31T14:16:05;32.50;37.90
66271;DHT22;53063;39.614;8.814;2023-07-31T14:18:33;32.60;38.40
66271;DHT22;53063;39.614;8.814;2023-07-31T14:20:59;32.40;37.40
66271;DHT22;53063;39.614;8.814;2023-07-31T14:23:25;32.40;38.50
66271;DHT22;53063;39.614;8.814;2023-07-31T14:25:51;32.50;38.70
66271;DHT22;53063;39.614;8.814;2023-07-31T14:28:17;32.50;38.00
66271;DHT22;53063;39.614;8.814;2023-07-31T14:30:43;32.40;37.30
66271;DHT22;53063;39.614;8.814;2023-07-31T14:33:09;32.50;37.50
66271;DHT22;53063;39.614;8.814;2023-07-31T14:35:35;32.20;38.20
66271;DHT22;53063;39.614;8.814;2023-07-31T14:38:01;32.00;38.60
66271;DHT22;53063;39.614;8.814;2023-07-31T14:40:27;32.00;38.30
66271;DHT22;53063;39.614;8.814;2023-07-31T14:42:53;32.00;38.30
66271;DHT22;53063;39.614;8.814;2023-07-31T14:45:19;31.80;38.90
66271;DHT22;53063;39.614;8.814;2023-07-31T14:47:44;31.70;39.00
66271;DHT22;53063;39.614;8.814;2023-07-31T14:50:10;31.50;39.20
66271;DHT22;53063;39.614;8.814;2023-07-31T14:52:36;31.60;40.20
66271;DHT22;53063;39.614;8.814;2023-07-31T14:55:03;31.70;40.30
66271;DHT22;53063;39.614;8.814;2023-07-31T14:57:29;31.60;40.90
66271;DHT22;53063;39.614;8.814;2023-07-31T14:59:54;31.70;40.80
66271;DHT22;53063;39.614;8.814;2023-07-31T15:02:20;31.60;41.00
66271;DHT22;53063;39.614;8.814;2023-07-31T15:04:46;31.60;41.50
66271;DHT22;53063;39.614;8.814;2023-07-31T15:07:12;31.60;41.70
66271;DHT22;53063;39.614;8.814;2023-07-31T15:09:39;31.30;41.40
66271;DHT22;53063;39.614;8.814;2023-07-31T15:12:05;31.10;42.20
66271;DHT22;53063;39.614;8.814;2023-07-31T15:14:31;31.20;42.00
66271;DHT22;53063;39.614;8.814;2023-07-31T15:16:58;31.30;41.70
66271;DHT22;53063;39.614;8.814;2023-07-31T15:19:24;31.20;42.60
66271;DHT22;53063;39.614;8.814;2023-07-31T15:21:50;31.20;42.50
66271;DHT22;53063;39.614;8.814;2023-07-31T15:24:15;31.00;43.00
66271;DHT22;53063;39.614;8.814;2023-07-31T15:26:41;31.10;42.80
66271;DHT22;53063;39.614;8.814;2023-07-31T15:29:07;31.10;43.00
66271;DHT22;53063;39.614;8.814;2023-07-31T15:31:35;31.20;42.30
66271;DHT22;53063;39.614;8.814;2023-07-31T15:34:01;30.90;42.50
66271;DHT22;53063;39.614;8.814;2023-07-31T15:36:27;30.80;43.10
66271;DHT22;53063;39.614;8.814;2023-07-31T15:38:53;31.10;43.00
66271;DHT22;53063;39.614;8.814;2023-07-31T15:41:19;31.10;42.60
66271;DHT22;53063;39.614;8.814;2023-07-31T15:43:45;31.00;42.90
66271;DHT22;53063;39.614;8.814;2023-07-31T15:46:11;30.90;42.80